Melita, Canada
Current Conditions -  °F | °C
As of 5:58 AM on Saturday 25 Oct 2014 (Local Time) from KMIB Reporting Station
Clear Clear  
Wind Chill: 29°   Ceiling: Unl
Heat Index: 36°   Visibility: 10mi
Dew Point: 31°   Wind: 10mph
Humidity: 80%   Direction: 270°W
Pressure: 30.08"   Gusts: NA
Location:  49.27°N, 100.99°W
Report Text: KMIB 251058Z AUTO 27009KT 10SM CLR 02/M01 A3008 RMK AO2 SLP200 T00231008 $
Loading
Personal Weather Stations






























Interactive Weather Map
Tropical Storm Tracking
New forecast layout! Learn more

10-Day Weather Forecast

Advertisements
Track Severe Weather on mobile